Time;durP1;ratioP1;P1;durP2;ratioP2;P2;SDS_P1;SDS_P2;PMS_P1;PMS_P2;Temp;Humidity;BMP_temperature;BMP_pressure;BME280_temperature;BME280_humidity;BME280_pressure;Samples;Min_cycle;Max_cycle;Signal;HPM_P1;HPM_P2
2022/01/22 00:02:16;;;;;;;18.63;8.40;;;2.00;1.00;;;;;;5074524;28;20204;-86
2022/01/22 00:04:43;;;;;;;17.37;8.67;;;2.00;1.00;;;;;;5064106;28;20193;-87
2022/01/22 00:07:10;;;;;;;20.13;7.93;;;2.00;1.00;;;;;;5054635;28;20263;-87
2022/01/22 00:09:46;;;;;;;18.00;7.73;;;2.00;1.00;;;;;;5054775;28;20566;-87
2022/01/22 00:12:24;;;;;;;16.40;7.20;;;2.10;1.00;;;;;;5054631;28;20202;-87
2022/01/22 00:14:51;;;;;;;20.57;6.70;;;2.00;1.00;;;;;;5054343;28;20251;-92
2022/01/22 00:17:18;;;;;;;12.47;6.87;;;2.10;1.00;;;;;;5073918;28;20566;-86
2022/01/22 00:19:45;;;;;;;14.57;6.57;;;2.10;1.00;;;;;;5074370;28;20267;-87
2022/01/22 00:22:12;;;;;;;17.87;7.67;;;2.10;1.00;;;;;;5074182;28;20184;-87
2022/01/22 00:24:41;;;;;;;20.17;8.83;;;2.10;1.00;;;;;;5064769;28;20193;-87
2022/01/22 00:27:08;;;;;;;16.33;7.97;;;2.10;1.00;;;;;;5054128;28;20651;-86
2022/01/22 00:29:35;;;;;;;19.00;8.57;;;2.10;1.00;;;;;;5053747;28;20251;-87
2022/01/22 00:32:02;;;;;;;20.30;8.20;;;2.10;1.00;;;;;;5053781;28;20197;-87
2022/01/22 00:34:29;;;;;;;16.77;8.07;;;2.10;1.00;;;;;;5053589;28;20185;-87
2022/01/22 00:36:56;;;;;;;18.20;8.27;;;2.10;1.00;;;;;;5070314;28;20253;-87
2022/01/22 00:39:23;;;;;;;19.40;8.30;;;2.10;1.00;;;;;;5074050;28;20739;-91
2022/01/22 00:41:51;;;;;;;17.33;8.00;;;2.10;1.00;;;;;;5074583;28;20183;-87
2022/01/22 00:44:18;;;;;;;19.43;8.03;;;2.20;1.00;;;;;;5069636;28;20201;-88
2022/01/22 00:46:45;;;;;;;18.53;8.03;;;2.20;1.00;;;;;;5055249;28;20220;-92
2022/01/22 00:49:12;;;;;;;19.40;8.07;;;2.10;1.00;;;;;;5056034;28;20201;-89
2022/01/22 00:51:39;;;;;;;19.70;8.50;;;2.10;1.00;;;;;;5053810;28;20258;-88
2022/01/22 00:54:06;;;;;;;20.83;8.20;;;2.20;1.00;;;;;;5053348;28;20192;-87
2022/01/22 00:56:33;;;;;;;19.33;8.70;;;2.20;1.00;;;;;;5066377;28;20188;-87
2022/01/22 00:59:01;;;;;;;18.97;8.30;;;2.10;1.00;;;;;;5074506;28;20615;-89
2022/01/22 01:01:29;;;;;;;21.70;8.23;;;2.10;1.00;;;;;;5074708;28;20207;-89
2022/01/22 01:04:01;;;;;;;19.43;9.13;;;2.20;1.00;;;;;;5074588;28;20722;-88
2022/01/22 01:06:28;;;;;;;20.87;9.47;;;2.10;1.00;;;;;;5060385;28;20636;-88
2022/01/22 01:08:55;;;;;;;24.10;9.53;;;2.20;1.00;;;;;;5055926;28;20242;-89
2022/01/22 01:11:25;;;;;;;21.00;9.53;;;2.20;1.00;;;;;;5056128;28;20226;-88
2022/01/22 01:13:57;;;;;;;26.03;9.07;;;2.20;1.00;;;;;;5055062;28;20197;-88
2022/01/22 01:16:45;;;;;;;19.43;8.10;;;2.30;1.00;;;;;;5053502;28;20216;-87
2022/01/22 01:33:03;;;;;;;16.07;7.27;;;2.10;1.00;;;;;;5073541;28;20222;-89
2022/01/22 01:35:32;;;;;;;14.80;7.40;;;2.10;1.00;;;;;;5072990;28;20188;-88
2022/01/22 01:38:01;;;;;;;13.67;7.30;;;2.10;1.00;;;;;;5073380;28;20654;-90
2022/01/22 01:40:29;;;;;;;16.13;8.27;;;2.10;1.00;;;;;;5073201;28;20686;-88
2022/01/22 01:43:06;;;;;;;14.23;8.47;;;2.10;1.00;;;;;;5072630;28;20257;-87
2022/01/22 01:45:33;;;;;;;15.47;7.20;;;2.10;1.00;;;;;;5050126;28;20193;-87
2022/01/22 01:48:09;;;;;;;13.03;6.83;;;2.00;99.90;;;;;;5049749;28;20197;-87
2022/01/22 01:50:38;;;;;;;18.40;6.87;;;2.00;99.90;;;;;;5052451;28;20184;-88
2022/01/22 01:53:11;;;;;;;16.83;9.23;;;2.00;99.90;;;;;;5052583;28;20549;-90
2022/01/22 01:55:51;;;;;;;14.87;7.93;;;2.00;99.90;;;;;;5052871;28;20196;-87
2022/01/22 01:58:18;;;;;;;17.77;8.77;;;2.00;99.90;;;;;;5052997;28;20640;-85
2022/01/22 02:00:45;;;;;;;18.90;8.93;;;2.00;99.90;;;;;;5053295;28;20196;-87
2022/01/22 02:03:14;;;;;;;18.07;7.97;;;2.00;99.90;;;;;;5051922;28;20235;-87
2022/01/22 02:05:41;;;;;;;18.17;8.10;;;2.00;99.90;;;;;;5066440;28;20699;-87
2022/01/22 02:08:09;;;;;;;14.83;7.07;;;2.00;99.90;;;;;;5072873;28;20192;-88
2022/01/22 02:10:43;;;;;;;14.77;6.33;;;2.00;99.90;;;;;;5072769;28;20195;-87
2022/01/22 02:24:19;;;;;;;11.17;5.13;;;1.90;99.90;;;;;;5016363;28;20418;-87
2022/01/22 02:26:47;;;;;;;11.03;4.50;;;1.90;99.90;;;;;;5052982;28;20239;-87
2022/01/22 02:29:14;;;;;;;10.50;4.77;;;1.90;99.90;;;;;;5052405;28;20675;-89
2022/01/22 02:31:48;;;;;;;11.67;4.97;;;1.90;99.90;;;;;;5033094;28;20231;-87
2022/01/22 02:34:20;;;;;;;12.00;4.67;;;1.90;99.90;;;;;;5051605;28;20604;-91
2022/01/22 02:36:59;;;;;;;13.80;6.20;;;1.90;99.90;;;;;;5051966;28;20616;-87
2022/01/22 02:39:37;;;;;;;18.53;6.87;;;1.90;99.90;;;;;;5053915;28;20211;-91
2022/01/22 02:42:04;;;;;;;21.80;12.63;;;1.80;99.90;;;;;;5052838;28;20184;-91
2022/01/22 02:44:34;;;;;;;19.97;9.00;;;1.80;99.90;;;;;;5052991;28;20228;-89
2022/01/22 02:47:03;;;;;;;24.53;14.67;;;1.80;99.90;;;;;;5054597;28;20200;-87
2022/01/22 02:49:30;;;;;;;14.90;8.10;;;1.70;99.90;;;;;;5056384;28;20530;-87
2022/01/22 02:52:01;;;;;;;17.37;7.87;;;1.60;85.80;;;;;;5056112;28;20196;-87
2022/01/22 02:54:28;;;;;;;15.30;7.60;;;1.60;45.50;;;;;;5055616;28;20623;-88
2022/01/22 02:56:55;;;;;;;13.90;6.83;;;1.60;4.50;;;;;;5056082;28;20200;-87
2022/01/22 02:59:23;;;;;;;21.17;8.90;;;1.50;1.00;;;;;;5056058;28;20213;-89
2022/01/22 03:01:50;;;;;;;20.70;9.47;;;1.40;1.00;;;;;;5063595;28;20214;-86
2022/01/22 03:04:17;;;;;;;18.67;10.00;;;1.30;1.00;;;;;;5075992;28;20221;-88
2022/01/22 03:06:46;;;;;;;20.00;8.57;;;1.30;1.00;;;;;;5075351;28;20191;-87
2022/01/22 03:09:16;;;;;;;21.77;7.63;;;1.20;1.00;;;;;;5075956;28;20196;-87
2022/01/22 03:11:58;;;;;;;17.47;7.13;;;1.20;1.00;;;;;;5058631;28;20635;-87
2022/01/22 03:15:07;;;;;;;17.43;7.03;;;1.10;1.00;;;;;;5056124;28;20177;-87
2022/01/22 03:17:35;;;;;;;10.17;5.70;;;1.00;1.00;;;;;;5055550;28;20310;-88
2022/01/22 03:20:17;;;;;;;12.83;5.67;;;1.00;1.00;;;;;;5055860;28;20228;-90
2022/01/22 03:23:05;;;;;;;8.80;3.80;;;0.90;1.00;;;;;;5076724;28;20188;-88
2022/01/22 03:28:27;;;;;;;12.53;3.70;;;0.80;1.00;;;;;;5056586;28;20192;-86
2022/01/22 03:30:54;;;;;;;15.70;4.40;;;0.70;1.00;;;;;;5075307;28;20190;-86
2022/01/22 03:33:23;;;;;;;14.70;7.20;;;0.70;1.00;;;;;;5076408;28;20196;-90
2022/01/22 03:35:55;;;;;;;11.57;4.27;;;0.70;1.00;;;;;;5076065;28;20196;-88
2022/01/22 03:38:23;;;;;;;7.10;3.23;;;0.60;1.00;;;;;;5076365;28;20200;-88
2022/01/22 03:40:51;;;;;;;12.23;2.87;;;0.50;1.00;;;;;;5075179;28;20681;-87
2022/01/22 03:43:19;;;;;;;10.40;3.90;;;0.50;1.00;;;;;;5075648;28;20349;-88
2022/01/22 03:45:49;;;;;;;18.40;6.83;;;0.50;1.00;;;;;;5074661;28;20603;-87
2022/01/22 03:48:16;;;;;;;16.37;6.30;;;0.40;1.00;;;;;;5074186;28;20188;-87
2022/01/22 03:50:43;;;;;;;14.53;4.13;;;0.40;1.00;;;;;;5074877;28;20196;-87
2022/01/22 03:53:10;;;;;;;12.80;4.17;;;0.30;1.00;;;;;;5075153;28;20269;-87
2022/01/22 03:55:47;;;;;;;8.23;2.83;;;0.30;1.00;;;;;;5068958;28;20197;-87
2022/01/22 03:58:15;;;;;;;5.30;2.50;;;0.20;1.00;;;;;;5054751;28;20522;-86
2022/01/22 04:00:43;;;;;;;7.43;2.30;;;0.20;1.00;;;;;;5055390;28;20278;-85
2022/01/22 04:06:25;;;;;;;5.13;2.03;;;0.20;1.00;;;;;;5039528;28;20193;-87
2022/01/22 04:08:52;;;;;;;4.77;2.30;;;0.20;1.00;;;;;;5054756;28;20203;-86
2022/01/22 04:11:19;;;;;;;8.83;2.70;;;0.10;1.00;;;;;;5054224;28;20204;-87
2022/01/22 04:13:51;;;;;;;7.40;2.43;;;0.10;1.00;;;;;;5054520;28;20192;-87
2022/01/22 04:16:18;;;;;;;15.03;4.93;;;0.00;1.00;;;;;;5055203;28;20185;-87
2022/01/22 04:27:21;;;;;;;32.67;10.80;;;-0.20;1.00;;;;;;5031232;28;20178;-87
2022/01/22 04:29:50;;;;;;;26.13;8.67;;;-0.20;1.00;;;;;;5064418;28;20562;-87
2022/01/22 04:32:17;;;;;;;23.03;7.67;;;-0.30;1.00;;;;;;5058824;28;20593;-88
2022/01/22 04:34:44;;;;;;;20.53;5.87;;;-0.30;1.00;;;;;;5053775;28;20205;-87
2022/01/22 04:37:11;;;;;;;15.10;5.43;;;-0.40;1.00;;;;;;5054248;28;20192;-86
2022/01/22 04:39:39;;;;;;;13.83;4.83;;;-0.40;1.00;;;;;;5053725;28;20259;-86
2022/01/22 04:42:06;;;;;;;10.03;2.87;;;-0.50;1.00;;;;;;5054147;28;20197;-86
2022/01/22 04:44:39;;;;;;;11.93;3.40;;;-0.50;1.00;;;;;;5073921;28;20192;-86
2022/01/22 04:47:20;;;;;;;8.77;2.80;;;-0.60;1.00;;;;;;5073648;28;20184;-89
2022/01/22 04:52:40;;;;;;;8.03;3.10;;;-0.70;1.00;;;;;;5056702;28;20653;-87
2022/01/22 04:55:08;;;;;;;12.20;3.70;;;-0.80;1.00;;;;;;5053636;28;20192;-87
2022/01/22 04:57:36;;;;;;;10.37;3.77;;;-0.80;1.00;;;;;;5053192;28;20201;-86
2022/01/22 05:00:45;;;;;;;6.23;3.37;;;-0.90;1.00;;;;;;5054017;28;20274;-86
2022/01/22 05:03:15;;;;;;;4.43;2.77;;;-0.90;1.00;;;;;;5063659;28;20229;-87
2022/01/22 05:05:43;;;;;;;4.10;2.70;;;-0.90;1.00;;;;;;5073733;28;20176;-87
2022/01/22 05:08:10;;;;;;;6.37;2.63;;;-1.00;1.00;;;;;;5073998;28;20203;-87
2022/01/22 05:10:37;;;;;;;6.77;3.07;;;-1.10;1.00;;;;;;5062060;28;20594;-86
2022/01/22 05:13:04;;;;;;;8.27;4.30;;;-1.10;1.00;;;;;;5053331;28;20188;-87
2022/01/22 05:15:31;;;;;;;17.47;6.10;;;-1.20;1.00;;;;;;5053871;28;20193;-86
2022/01/22 05:17:58;;;;;;;29.53;9.80;;;-1.20;1.00;;;;;;5053618;28;20234;-87
2022/01/22 05:20:30;;;;;;;42.20;15.10;;;-1.20;1.00;;;;;;5052452;28;20315;-87
2022/01/22 05:23:02;;;;;;;52.07;19.50;;;-1.20;1.00;;;;;;5053308;28;20205;-88
2022/01/22 05:25:34;;;;;;;31.10;12.43;;;-1.20;1.00;;;;;;5053412;28;20180;-87
2022/01/22 05:28:16;;;;;;;24.13;8.67;;;-1.20;1.00;;;;;;5053471;28;20188;-87
2022/01/22 05:38:57;;;;;;;7.10;3.13;;;-1.30;1.00;;;;;;5061064;28;20657;-90
2022/01/22 05:41:24;;;;;;;5.63;2.90;;;-1.30;1.00;;;;;;5072911;28;20616;-87
2022/01/22 05:43:51;;;;;;;5.57;2.27;;;-1.40;1.00;;;;;;5072620;28;20249;-87
2022/01/22 05:46:18;;;;;;;7.77;2.30;;;-1.40;1.00;;;;;;5070843;28;20196;-87
2022/01/22 05:48:46;;;;;;;3.83;2.70;;;-1.40;1.00;;;;;;5052621;28;20651;-88
2022/01/22 05:51:16;;;;;;;5.10;3.50;;;-1.40;1.00;;;;;;5053103;28;20227;-90
2022/01/22 05:54:00;;;;;;;5.20;2.10;;;-1.40;1.00;;;;;;5053393;28;20200;-87
2022/01/22 06:01:57;;;;;;;3.70;1.60;;;-1.50;1.00;;;;;;5072600;28;20216;-86
2022/01/22 06:04:24;;;;;;;4.67;1.50;;;-1.50;1.00;;;;;;5072983;28;20597;-86
2022/01/22 06:06:52;;;;;;;5.27;1.60;;;-1.50;1.00;;;;;;5072609;28;20653;-91
2022/01/22 06:09:19;;;;;;;2.40;1.17;;;-1.50;1.00;;;;;;5073424;28;20203;-87
2022/01/22 06:11:55;;;;;;;3.30;1.40;;;-1.50;1.00;;;;;;5073029;28;20191;-88
2022/01/22 06:14:22;;;;;;;3.83;1.23;;;-1.60;1.00;;;;;;5073143;28;20637;-88
2022/01/22 06:16:49;;;;;;;3.43;1.30;;;-1.60;1.00;;;;;;5072375;28;20199;-88
2022/01/22 06:19:16;;;;;;;2.77;1.40;;;-1.60;1.00;;;;;;5072818;28;20187;-88
2022/01/22 06:21:43;;;;;;;1.67;1.23;;;-1.60;1.00;;;;;;5054104;28;20192;-89
2022/01/22 06:24:12;;;;;;;1.87;1.17;;;-1.70;1.00;;;;;;5057128;28;20200;-87
2022/01/22 06:26:40;;;;;;;7.70;1.57;;;-1.70;1.00;;;;;;5056976;28;20199;-87
2022/01/22 06:29:07;;;;;;;1.57;1.20;;;-1.70;1.00;;;;;;5056187;28;20643;-87
2022/01/22 06:31:34;;;;;;;2.93;1.00;;;-1.70;1.00;;;;;;5056458;28;20192;-87
2022/01/22 06:34:01;;;;;;;3.77;1.30;;;-1.80;1.00;;;;;;5056799;28;20200;-87
2022/01/22 06:36:28;;;;;;;2.73;1.53;;;-1.80;1.00;;;;;;5056663;28;20246;-86
2022/01/22 06:38:59;;;;;;;6.83;1.50;;;-1.80;1.00;;;;;;5056499;28;20204;-87
2022/01/22 06:41:44;;;;;;;4.83;1.40;;;-1.80;1.00;;;;;;5056271;28;20208;-87
2022/01/22 06:44:13;;;;;;;5.13;1.80;;;-1.90;1.00;;;;;;5056073;28;20278;-87
2022/01/22 06:46:40;;;;;;;2.33;1.43;;;-1.90;1.00;;;;;;5064517;28;20169;-89
2022/01/22 06:49:08;;;;;;;5.53;2.10;;;-1.90;1.00;;;;;;5068061;28;20183;-88
2022/01/22 06:51:35;;;;;;;5.87;2.53;;;-1.90;1.00;;;;;;5068120;28;20261;-91
2022/01/22 06:54:02;;;;;;;11.17;4.13;;;-2.00;1.00;;;;;;5066638;28;20201;-87
2022/01/22 06:56:54;;;;;;;9.70;3.90;;;-2.00;1.00;;;;;;5067301;28;20196;-90
2022/01/22 06:59:21;;;;;;;14.80;5.47;;;-2.00;1.00;;;;;;5060600;28;20546;-89
2022/01/22 07:01:53;;;;;;;8.50;3.90;;;-2.10;1.00;;;;;;5066993;28;20212;-88
2022/01/22 07:04:20;;;;;;;8.20;3.63;;;-2.10;1.00;;;;;;5057810;28;20180;-89
2022/01/22 07:06:47;;;;;;;9.40;4.30;;;-2.10;1.00;;;;;;5063866;28;20200;-88
2022/01/22 07:09:14;;;;;;;15.53;4.70;;;-2.10;1.00;;;;;;5062186;28;20251;-89
2022/01/22 07:11:41;;;;;;;7.33;3.73;;;-2.00;1.00;;;;;;5058925;28;20250;-88
2022/01/22 07:14:09;;;;;;;10.23;3.53;;;-1.90;1.00;;;;;;5056207;28;20646;-90
2022/01/22 07:16:36;;;;;;;10.60;3.70;;;-1.60;99.90;;;;;;5055643;28;20279;-89
2022/01/22 07:19:04;;;;;;;9.60;4.50;;;-1.10;99.90;;;;;;5055543;28;20254;-89
2022/01/22 07:22:31;;;;;;;15.33;8.00;;;-0.70;99.90;;;;;;5071437;28;20239;-92
2022/01/22 07:24:58;;;;;;;8.73;5.03;;;-0.30;99.90;;;;;;5046795;28;20201;-93
2022/01/22 07:27:25;;;;;;;10.57;4.10;;;0.20;99.90;;;;;;5038002;28;20205;-91
2022/01/22 07:30:12;;;;;;;7.50;4.03;;;0.70;1.00;;;;;;5048254;28;20207;-89
2022/01/22 07:32:42;;;;;;;8.40;3.70;;;1.10;1.00;;;;;;5049899;28;20235;-91
2022/01/22 07:35:16;;;;;;;6.27;3.30;;;1.30;1.00;;;;;;5063523;28;20255;-90
2022/01/22 07:37:53;;;;;;;8.63;3.13;;;1.20;1.00;;;;;;5073279;28;20207;-90
2022/01/22 07:40:49;;;;;;;4.37;2.00;;;1.10;25.60;;;;;;5070761;28;20252;-91
2022/01/22 07:43:40;;;;;;;;;;;;;;;;;;;;;
2022/01/22 07:46:12;;;;;;;2.67;1.40;;;0.80;99.90;;;;;;5050955;28;20598;-92
2022/01/22 07:48:49;;;;;;;3.83;1.67;;;0.70;99.90;;;;;;5063925;28;20201;-91
2022/01/22 07:51:22;;;;;;;4.20;1.70;;;0.70;1.00;;;;;;5078808;28;20184;-91
2022/01/22 07:53:50;;;;;;;3.90;1.83;;;0.60;1.00;;;;;;5066558;28;20212;-91
2022/01/22 07:56:30;;;;;;;5.70;1.80;;;0.60;1.00;;;;;;5073639;28;20207;-90
2022/01/22 07:58:59;;;;;;;4.17;1.80;;;0.60;1.00;;;;;;5066667;28;20613;-89
2022/01/22 08:01:36;;;;;;;3.13;1.60;;;0.50;1.00;;;;;;5070524;28;20201;-94
2022/01/22 08:04:11;;;;;;;5.83;2.67;;;0.50;1.00;;;;;;5060459;28;20639;-88
2022/01/22 08:06:47;;;;;;;5.77;3.07;;;0.40;1.00;;;;;;5060743;28;20200;-90
2022/01/22 08:09:17;;;;;;;3.00;1.83;;;0.50;1.00;;;;;;5059484;28;20270;-89
2022/01/22 08:11:47;;;;;;;5.17;3.10;;;0.50;1.00;;;;;;5051704;28;20193;-92
2022/01/22 08:14:17;;;;;;;4.73;2.10;;;0.50;1.00;;;;;;5047144;28;20173;-88
2022/01/22 08:16:51;;;;;;;3.83;2.20;;;0.60;1.00;;;;;;5047908;28;20201;-88
2022/01/22 08:19:53;;;;;;;5.43;2.50;;;0.80;1.00;;;;;;5052391;28;20284;-91
2022/01/22 08:22:50;;;;;;;6.47;2.30;;;1.40;1.00;;;;;;5070613;28;20199;-92
2022/01/22 08:25:17;;;;;;;3.70;1.57;;;2.50;29.70;;;;;;5093024;28;20672;-90
2022/01/22 08:30:55;;;;;;;4.10;1.30;;;4.30;39.80;;;;;;5089874;28;20166;-90
2022/01/22 08:35:52;;;;;;;5.63;2.53;;;5.30;1.00;;;;;;5085244;28;20670;-91
2022/01/22 08:36:24;;;;;;;2.67;1.37;;;6.20;1.00;;;;;;5075560;28;20226;-87
2022/01/22 08:38:51;;;;;;;66.47;15.73;;;7.10;1.00;;;;;;5081987;28;20183;-87
2022/01/22 08:41:34;;;;;;;91.27;19.30;;;7.80;1.00;;;;;;5082212;28;20199;-89
2022/01/22 08:44:10;;;;;;;120.73;28.10;;;8.60;1.00;;;;;;5091458;28;20198;-88
2022/01/22 08:46:41;;;;;;;111.77;24.77;;;9.30;1.00;;;;;;5082935;28;20180;-88
2022/01/22 08:49:26;;;;;;;145.27;29.23;;;10.20;1.00;;;;;;5083370;28;20201;-89
2022/01/22 08:51:54;;;;;;;112.10;24.77;;;11.10;1.00;;;;;;5082404;28;20200;-91
2022/01/22 08:54:22;;;;;;;125.65;29.15;;;11.80;1.00;;;;;;5082671;28;20202;-84
2022/01/22 08:59:33;;;;;;;67.72;19.55;;;12.70;17.10;;;;;;5081640;28;20208;-93
2022/01/22 09:02:09;;;;;;;27.63;8.75;;;12.90;99.90;;;;;;5085180;28;20192;-95
2022/01/22 09:04:38;;;;;;;17.60;9.85;;;13.10;1.00;;;;;;5081778;28;20227;-91
2022/01/22 09:07:05;;;;;;;13.25;6.32;;;13.10;1.00;;;;;;5080313;28;20200;-88
2022/01/22 09:09:35;;;;;;;39.70;14.07;;;13.00;1.00;;;;;;5083287;28;20199;-88
2022/01/22 09:12:06;;;;;;;9.20;4.15;;;12.50;1.00;;;;;;5085560;28;20248;-90
2022/01/22 09:14:33;;;;;;;32.80;12.70;;;11.80;99.90;;;;;;5080534;28;20701;-87
2022/01/22 09:17:11;;;;;;;30.17;13.13;;;11.00;1.00;;;;;;5081123;28;20199;-89
2022/01/22 09:19:56;;;;;;;14.67;6.87;;;10.50;1.00;;;;;;5078137;28;20190;-88
2022/01/22 09:22:31;;;;;;;12.57;6.23;;;10.00;1.00;;;;;;5075214;28;20186;-90
2022/01/22 09:25:02;;;;;;;12.33;6.47;;;9.70;1.00;;;;;;5090175;28;20285;-89
2022/01/22 09:27:34;;;;;;;7.10;3.87;;;9.40;1.00;;;;;;5084409;28;20640;-93
2022/01/22 09:30:05;;;;;;;5.93;2.60;;;8.90;1.00;;;;;;5076352;28;20276;-87
2022/01/22 09:32:38;;;;;;;2.87;1.73;;;8.60;1.00;;;;;;5084510;28;20176;-90
2022/01/22 09:35:28;;;;;;;3.07;1.80;;;8.60;1.00;;;;;;5091253;28;20197;-93
2022/01/22 09:37:55;;;;;;;3.67;1.90;;;8.50;1.00;;;;;;5105607;28;20194;-90
2022/01/22 09:40:22;;;;;;;3.87;2.00;;;8.30;99.90;;;;;;5100282;28;20196;-90
2022/01/22 09:42:59;;;;;;;3.77;1.70;;;8.00;99.90;;;;;;5067782;28;20204;-93
2022/01/22 09:45:32;;;;;;;3.10;2.00;;;7.70;1.00;;;;;;5070713;28;20216;-91
2022/01/22 09:48:08;;;;;;;7.37;2.50;;;7.60;1.00;;;;;;5063547;28;20206;-89
2022/01/22 09:51:02;;;;;;;4.43;1.80;;;7.40;99.90;;;;;;5065961;28;20280;-93
2022/01/22 09:54:00;;;;;;;3.80;1.93;;;7.40;99.90;;;;;;5077264;28;20209;-93
2022/01/22 09:56:46;;;;;;;3.50;1.80;;;7.40;1.00;;;;;;5040488;28;20197;-93
2022/01/22 09:59:13;;;;;;;4.40;1.90;;;7.40;1.00;;;;;;5066618;28;20247;-93
2022/01/22 10:01:41;;;;;;;10.20;5.70;;;7.30;1.00;;;;;;5076712;28;20216;-94
2022/01/22 10:04:13;;;;;;;5.50;2.20;;;7.30;1.00;;;;;;5085936;28;20208;-91
2022/01/22 10:10:42;;;;;;;3.27;1.80;;;6.80;1.00;;;;;;5046611;28;20187;-93
2022/01/22 10:13:24;;;;;;;4.33;2.30;;;6.70;1.00;;;;;;5004125;28;20360;-92
2022/01/22 10:15:52;;;;;;;3.30;1.70;;;6.70;99.90;;;;;;5004700;28;20399;-91
2022/01/22 10:18:28;;;;;;;4.37;2.40;;;6.70;99.90;;;;;;5067956;28;20213;-93
2022/01/22 10:21:28;;;;;;;;;;;;;;;;;;;;;
2022/01/22 10:24:25;;;;;;;5.90;1.90;;;6.50;1.00;;;;;;5005173;28;20203;-95
2022/01/22 10:30:41;;;;;;;4.50;2.00;;;6.20;1.00;;;;;;4949837;28;20228;-93
2022/01/22 10:33:40;;;;;;;2.80;1.87;;;6.00;64.70;;;;;;4948648;29;20205;-92
2022/01/22 10:39:20;;;;;;;4.57;2.40;;;5.70;1.00;;;;;;5487576;23;20228;-95
2022/01/22 10:42:01;;;;;;;8.53;4.07;;;5.40;93.30;;;;;;5143422;22;20316;-92
2022/01/22 10:44:50;;;;;;;;;;;;;;;;;;;;;
2022/01/22 10:47:25;;;;;;;3.73;2.07;;;5.00;99.90;;;;;;5107287;28;20199;-95
2022/01/22 10:50:20;;;;;;;3.90;2.13;;;4.90;1.00;;;;;;5109639;28;20183;-95
2022/01/22 10:52:53;;;;;;;4.50;2.47;;;4.80;1.00;;;;;;5092170;28;20666;-91
2022/01/22 10:55:32;;;;;;;7.83;2.73;;;4.70;21.30;;;;;;5101734;28;20285;-92
2022/01/22 10:58:12;;;;;;;5.17;2.63;;;4.70;18.90;;;;;;5098329;28;20200;-93
2022/01/22 11:01:01;;;;;;;5.30;2.77;;;4.70;99.90;;;;;;5098546;28;20194;-93
2022/01/22 11:03:29;;;;;;;4.40;2.93;;;4.50;99.90;;;;;;5099025;28;20561;-90
2022/01/22 11:06:05;;;;;;;5.20;3.33;;;4.30;1.00;;;;;;5101490;28;20205;-91
2022/01/22 11:08:33;;;;;;;7.97;3.20;;;4.30;1.00;;;;;;5095442;28;20217;-92
2022/01/22 11:11:04;;;;;;;5.63;2.93;;;4.40;1.00;;;;;;5105005;28;20238;-93
2022/01/22 11:13:33;;;;;;;6.27;2.90;;;4.40;1.00;;;;;;5106552;28;20206;-90
2022/01/22 11:16:00;;;;;;;12.13;4.70;;;4.50;99.90;;;;;;5103331;28;20194;-91
2022/01/22 11:18:36;;;;;;;7.43;3.47;;;4.50;99.90;;;;;;5106254;28;20294;-92
2022/01/22 11:21:08;;;;;;;6.20;2.90;;;4.50;1.00;;;;;;5106743;28;20205;-92
2022/01/22 11:23:36;;;;;;;5.20;2.43;;;4.30;1.00;;;;;;5110586;28;20189;-90
2022/01/22 11:26:04;;;;;;;5.27;2.67;;;4.20;1.00;;;;;;5103433;28;20213;-91
2022/01/22 11:31:37;;;;;;;6.07;2.83;;;3.90;1.00;;;;;;5104333;28;20225;-89
2022/01/22 11:34:21;;;;;;;4.77;2.70;;;3.80;1.60;;;;;;5107821;28;20539;-92
2022/01/22 11:37:07;;;;;;;5.67;3.67;;;3.80;99.90;;;;;;5107783;28;20205;-91
2022/01/22 11:39:41;;;;;;;5.27;3.40;;;3.80;99.90;;;;;;5106596;28;20218;-93
2022/01/22 11:42:21;;;;;;;5.67;3.10;;;3.70;99.90;;;;;;5105602;28;20230;-92
2022/01/22 11:44:52;;;;;;;5.00;2.30;;;3.70;1.00;;;;;;5094915;28;20196;-91
2022/01/22 11:47:22;;;;;;;6.07;2.30;;;3.70;99.90;;;;;;5104524;28;20196;-89
2022/01/22 11:50:06;;;;;;;6.73;2.57;;;3.70;1.00;;;;;;5102667;28;20176;-91
2022/01/22 11:52:39;;;;;;;5.23;2.67;;;3.70;1.00;;;;;;5104807;28;20236;-93
2022/01/22 11:55:15;;;;;;;5.97;2.53;;;3.80;99.90;;;;;;5104076;28;20202;-91
2022/01/22 11:57:45;;;;;;;5.13;2.40;;;3.80;1.00;;;;;;5082799;28;20156;-89
2022/01/22 12:00:50;;;;;;;5.57;2.70;;;3.80;1.00;;;;;;5087612;28;20560;-92
2022/01/22 12:03:21;;;;;;;5.50;3.00;;;3.80;99.90;;;;;;5083335;28;20191;-90
2022/01/22 12:06:36;;;;;;;;;;;;;;;;;;;;;
2022/01/22 12:09:26;;;;;;;7.13;2.37;;;3.70;1.00;;;;;;5087006;28;20242;-92
2022/01/22 12:16:03;;;;;;;5.10;2.73;;;3.90;1.00;;;;;;5081439;28;20179;-92
2022/01/22 12:39:16;;;;;;;24.10;10.50;;;3.70;99.90;;;;;;4977616;28;20172;-89
2022/01/22 12:42:01;;;;;;;47.60;18.87;;;3.50;15.20;;;;;;5056829;28;20307;-88
2022/01/22 12:44:34;;;;;;;54.23;20.97;;;3.40;99.90;;;;;;5074416;28;20256;-93
2022/01/22 12:47:09;;;;;;;64.90;21.47;;;3.40;99.90;;;;;;5101682;28;20244;-92
2022/01/22 12:49:50;;;;;;;85.90;28.30;;;3.30;99.90;;;;;;5101704;28;20208;-89
2022/01/22 12:52:18;;;;;;;103.43;37.87;;;3.30;1.00;;;;;;5098580;28;20195;-91
2022/01/22 12:54:48;;;;;;;74.27;30.63;;;3.30;1.00;;;;;;5098838;28;20235;-91
2022/01/22 12:57:29;;;;;;;51.97;20.03;;;3.30;1.00;;;;;;5106529;28;20233;-89
2022/01/22 13:03:13;;;;;;;54.23;21.80;;;3.30;99.90;;;;;;5064787;28;20203;-93
2022/01/22 13:05:53;;;;;;;40.23;15.30;;;3.40;1.00;;;;;;5061261;28;20206;-90
2022/01/22 13:08:28;;;;;;;15.27;5.67;;;3.40;1.00;;;;;;5061951;28;20608;-90
2022/01/22 13:11:01;;;;;;;8.23;3.50;;;3.50;1.00;;;;;;5062891;28;20233;-90
2022/01/22 13:13:30;;;;;;;5.67;2.90;;;3.50;1.00;;;;;;5062971;28;20179;-90
2022/01/22 13:16:16;;;;;;;5.10;2.60;;;3.50;1.00;;;;;;5063847;28;20206;-91
2022/01/22 13:19:14;;;;;;;4.73;2.57;;;3.60;1.00;;;;;;5053671;28;20201;-92
2022/01/22 13:21:53;;;;;;;4.93;2.50;;;3.60;1.00;;;;;;4986540;28;20238;-93
2022/01/22 13:24:32;;;;;;;7.10;3.13;;;3.50;1.00;;;;;;5081778;28;20209;-95
2022/01/22 13:27:35;;;;;;;10.27;4.60;;;3.50;1.00;;;;;;5097663;28;20637;-95
2022/01/22 13:51:46;;;;;;;5.10;2.67;;;2.90;99.90;;;;;;5062930;28;20714;-91
2022/01/22 13:55:03;;;;;;;5.07;2.33;;;2.70;99.90;;;;;;5068589;28;20188;-93
2022/01/22 13:57:38;;;;;;;5.70;2.80;;;2.70;1.00;;;;;;5001564;28;20232;-92
2022/01/22 14:00:47;;;;;;;6.83;3.57;;;2.70;1.00;;;;;;5000772;28;20237;-90
2022/01/22 14:06:41;;;;;;;7.20;3.07;;;2.60;1.00;;;;;;5045874;28;20204;-92
2022/01/22 14:09:46;;;;;;;6.83;2.80;;;2.60;1.00;;;;;;5064423;28;20197;-93
2022/01/22 14:12:47;;;;;;;6.43;3.70;;;2.50;18.70;;;;;;5062784;28;20224;-95
2022/01/22 14:18:46;;;;;;;7.47;3.77;;;2.40;99.90;;;;;;5594944;22;20232;-92
2022/01/22 14:36:03;;;;;;;51.10;20.93;;;2.20;1.00;;;;;;5130986;23;20202;31
2022/01/22 14:48:33;;;;;;;20.13;10.33;;;1.90;1.00;;;;;;4840234;29;20268;-93
2022/01/22 14:51:01;;;;;;;9.87;5.83;;;1.90;1.00;;;;;;4851887;29;20579;-94
2022/01/22 14:53:44;;;;;;;21.90;13.77;;;1.80;1.00;;;;;;4853752;29;20603;-94
2022/01/22 14:59:07;;;;;;;8.67;4.57;;;1.70;1.00;;;;;;4774773;30;20218;-94
2022/01/22 15:05:00;;;;;;;7.40;4.27;;;1.70;1.00;;;;;;4800564;30;20189;-94
2022/01/22 15:07:42;;;;;;;7.77;4.13;;;1.60;1.00;;;;;;4799771;29;20213;-92
2022/01/22 15:10:23;;;;;;;9.07;5.13;;;1.60;1.00;;;;;;4838976;29;20234;-92
2022/01/22 15:12:53;;;;;;;7.03;3.93;;;1.50;1.00;;;;;;4874071;29;20243;-94
2022/01/22 15:19:12;;;;;;;12.27;6.67;;;1.50;1.00;;;;;;5108320;27;1565083;-94
2022/01/22 15:21:56;;;;;;;9.10;5.17;;;1.50;1.00;;;;;;5144046;27;20196;-94
2022/01/22 15:37:44;;;;;;;6.93;4.10;;;1.20;1.40;;;;;;4971886;28;20227;-94
2022/01/22 15:40:46;;;;;;;10.07;6.07;;;1.10;1.00;;;;;;4975421;28;20264;-92
2022/01/22 15:47:04;;;;;;;8.60;6.03;;;1.10;99.90;;;;;;4974019;28;20200;-92
2022/01/22 15:52:48;;;;;;;9.90;5.70;;;1.00;99.90;;;;;;5151132;23;20238;-92
2022/01/22 15:56:00;;;;;;;16.27;9.53;;;1.00;99.90;;;;;;4984289;28;20210;-93
2022/01/22 16:06:22;;;;;;;16.80;9.73;;;1.00;99.90;;;;;;5014492;28;20191;-91
2022/01/22 16:40:59;;;;;;;16.07;7.63;;;0.70;1.00;;;;;;5001286;28;20166;-93
2022/01/22 16:43:33;;;;;;;16.70;7.70;;;0.70;1.00;;;;;;4977509;28;20663;-92
2022/01/22 16:51:35;;;;;;;54.67;23.93;;;0.70;1.00;;;;;;4977150;28;20186;-92
2022/01/22 16:56:51;;;;;;;120.80;52.50;;;0.60;1.00;;;;;;4976900;28;20201;-91
2022/01/22 16:59:20;;;;;;;162.87;71.77;;;0.70;1.00;;;;;;4976949;28;20624;-92
2022/01/22 17:01:51;;;;;;;156.40;72.17;;;0.70;1.00;;;;;;4976801;28;20556;-91
2022/01/22 17:04:22;;;;;;;174.60;81.63;;;0.70;1.00;;;;;;4977766;28;20203;-90
2022/01/22 17:06:52;;;;;;;113.20;53.73;;;0.60;1.00;;;;;;4976717;28;20250;-90
2022/01/22 17:24:02;;;;;;;35.33;20.47;;;0.70;1.00;;;;;;4895441;29;20221;-90
2022/01/22 17:26:29;;;;;;;23.10;12.83;;;0.60;1.00;;;;;;4935283;28;20206;-89
2022/01/22 17:28:56;;;;;;;18.07;10.83;;;0.60;1.00;;;;;;4975350;28;20231;-89
2022/01/22 17:31:24;;;;;;;20.80;11.30;;;0.60;1.00;;;;;;4975223;28;20250;-90
2022/01/22 17:33:52;;;;;;;18.37;10.93;;;0.60;1.00;;;;;;4975167;28;20276;-90
2022/01/22 17:36:20;;;;;;;28.63;17.00;;;0.60;1.00;;;;;;4974608;28;20199;-89
2022/01/22 17:38:47;;;;;;;36.00;19.37;;;0.60;1.00;;;;;;4974485;28;20227;-87
2022/01/22 17:41:17;;;;;;;36.80;18.30;;;0.60;1.00;;;;;;4972284;28;20205;-88
2022/01/22 17:43:44;;;;;;;41.27;22.03;;;0.60;1.00;;;;;;4974789;28;20210;-88
2022/01/22 17:46:14;;;;;;;50.80;25.73;;;0.50;1.00;;;;;;4974392;28;20262;-88